Time;durP1;ratioP1;P1;durP2;ratioP2;P2;SDS_P1;SDS_P2;PMS_P1;PMS_P2;Temp;Humidity;BMP_temperature;BMP_pressure;BME280_temperature;BME280_humidity;BME280_pressure;Samples;Min_cycle;Max_cycle;Signal;HPM_P1;HPM_P2
2021/10/27 00:00:14;;;;;;;2.75;0.90;;;;;;;;;;2075187;28;20478;-77
2021/10/27 00:01:33;;;;;;;4.45;0.93;;;;;;;;;;2068357;28;20049;-76
2021/10/27 00:02:52;;;;;;;7.50;1.15;;;;;;;;;;2075151;28;20057;-74
2021/10/27 00:04:11;;;;;;;9.73;1.20;;;;;;;;;;2071578;28;20065;-76
2021/10/27 00:05:30;;;;;;;3.42;0.95;;;;;;;;;;2072667;28;20026;-77
2021/10/27 00:06:49;;;;;;;3.63;0.90;;;;;;;;;;2071161;28;20546;-77
2021/10/27 00:08:08;;;;;;;2.40;1.10;;;;;;;;;;2079103;28;20033;-77
2021/10/27 00:09:27;;;;;;;3.15;1.00;;;;;;;;;;2075439;28;20034;-77
2021/10/27 00:10:46;;;;;;;2.92;1.00;;;;;;;;;;2072401;28;20073;-76
2021/10/27 00:12:05;;;;;;;4.28;1.00;;;;;;;;;;2071843;28;20101;-77
2021/10/27 00:13:24;;;;;;;4.07;0.90;;;;;;;;;;2068845;28;20085;-77
2021/10/27 00:14:43;;;;;;;2.30;0.82;;;;;;;;;;2071322;28;20053;-77
2021/10/27 00:16:02;;;;;;;2.92;0.77;;;;;;;;;;2070586;28;20022;-77
2021/10/27 00:17:22;;;;;;;3.00;1.15;;;;;;;;;;2071032;28;20034;-76
2021/10/27 00:18:40;;;;;;;2.22;0.68;;;;;;;;;;2071500;28;20050;-77
2021/10/27 00:20:00;;;;;;;3.88;0.95;;;;;;;;;;2072161;28;20152;-76
2021/10/27 00:21:18;;;;;;;8.23;1.25;;;;;;;;;;2078951;28;20033;-76
2021/10/27 00:22:38;;;;;;;1.70;0.70;;;;;;;;;;2074683;28;20022;-77
2021/10/27 00:23:57;;;;;;;3.58;1.13;;;;;;;;;;2071280;28;20022;-75
2021/10/27 00:25:16;;;;;;;4.78;1.20;;;;;;;;;;2071138;28;20042;-75
2021/10/27 00:26:35;;;;;;;3.63;0.98;;;;;;;;;;2072928;28;20029;-76
2021/10/27 00:27:54;;;;;;;3.65;0.80;;;;;;;;;;2071605;28;20045;-77
2021/10/27 00:29:13;;;;;;;2.95;1.10;;;;;;;;;;2071669;28;20042;-76
2021/10/27 00:30:32;;;;;;;3.60;1.30;;;;;;;;;;2071210;28;20042;-77
2021/10/27 00:31:51;;;;;;;4.30;1.10;;;;;;;;;;2070983;28;20026;-76
2021/10/27 00:33:10;;;;;;;4.15;1.00;;;;;;;;;;2071583;28;20441;-76
2021/10/27 00:34:29;;;;;;;5.95;1.05;;;;;;;;;;2070985;28;20026;-77
2021/10/27 00:35:48;;;;;;;2.75;1.00;;;;;;;;;;2072871;28;20030;-77
2021/10/27 00:37:07;;;;;;;4.40;0.90;;;;;;;;;;2067048;28;20026;-77
2021/10/27 00:38:25;;;;;;;5.40;1.13;;;;;;;;;;2070118;28;20484;-77
2021/10/27 00:39:46;;;;;;;5.20;0.90;;;;;;;;;;2071601;28;20030;-75
2021/10/27 00:41:06;;;;;;;4.22;1.10;;;;;;;;;;2069327;28;20030;-76
2021/10/27 00:42:25;;;;;;;5.40;1.00;;;;;;;;;;2071526;28;20375;-77
2021/10/27 00:43:44;;;;;;;5.25;1.13;;;;;;;;;;2070783;28;20034;-76
2021/10/27 00:45:04;;;;;;;4.13;0.80;;;;;;;;;;2072116;28;20026;-75
2021/10/27 00:46:23;;;;;;;2.97;0.85;;;;;;;;;;2070885;28;20033;-77
2021/10/27 00:47:42;;;;;;;5.47;1.42;;;;;;;;;;2069389;28;20030;-76
2021/10/27 00:49:02;;;;;;;5.22;0.95;;;;;;;;;;2069902;28;20421;-77
2021/10/27 00:50:20;;;;;;;2.65;0.80;;;;;;;;;;2071071;28;20053;-77
2021/10/27 00:51:39;;;;;;;3.72;1.10;;;;;;;;;;2069541;28;20057;-78
2021/10/27 00:52:58;;;;;;;3.95;0.95;;;;;;;;;;2072053;28;20030;-76
2021/10/27 00:54:17;;;;;;;2.25;0.80;;;;;;;;;;2070995;28;20014;-77
2021/10/27 00:55:36;;;;;;;3.55;1.23;;;;;;;;;;2069207;28;20038;-77
2021/10/27 00:56:56;;;;;;;4.80;1.00;;;;;;;;;;2068430;28;20402;-77
2021/10/27 00:58:15;;;;;;;7.57;1.45;;;;;;;;;;2068040;28;20038;-77
2021/10/27 00:59:38;;;;;;;4.05;1.10;;;;;;;;;;2071564;28;20034;-76
2021/10/27 01:00:57;;;;;;;3.20;0.70;;;;;;;;;;2071934;28;20109;-77
2021/10/27 01:02:16;;;;;;;5.75;1.13;;;;;;;;;;2072921;28;20026;-77
2021/10/27 01:03:36;;;;;;;2.50;1.10;;;;;;;;;;2070660;28;20086;-77
2021/10/27 01:04:55;;;;;;;5.97;1.50;;;;;;;;;;2070786;28;20038;-74
2021/10/27 01:06:14;;;;;;;6.28;1.25;;;;;;;;;;2071781;28;20030;-77
2021/10/27 01:07:33;;;;;;;4.10;1.33;;;;;;;;;;2064664;28;20553;-75
2021/10/27 01:08:52;;;;;;;5.75;1.33;;;;;;;;;;2070592;28;20091;-77
2021/10/27 01:10:12;;;;;;;5.53;1.10;;;;;;;;;;2072239;28;20022;-77
2021/10/27 01:11:31;;;;;;;3.15;1.08;;;;;;;;;;2077779;28;20048;-76
2021/10/27 01:12:50;;;;;;;7.13;1.08;;;;;;;;;;2072233;28;20029;-75
2021/10/27 01:14:09;;;;;;;5.60;1.10;;;;;;;;;;2066736;28;20038;-76
2021/10/27 01:15:28;;;;;;;4.28;0.75;;;;;;;;;;2076521;28;20030;-76
2021/10/27 01:16:47;;;;;;;5.07;1.15;;;;;;;;;;2076899;28;20018;-77
2021/10/27 01:18:07;;;;;;;2.75;0.80;;;;;;;;;;2069922;28;20026;-77
2021/10/27 01:19:26;;;;;;;3.63;1.08;;;;;;;;;;2069683;28;20072;-77
2021/10/27 01:20:45;;;;;;;5.65;1.30;;;;;;;;;;2072570;28;20053;-77
2021/10/27 01:22:04;;;;;;;6.60;1.40;;;;;;;;;;2070828;28;20493;-77
2021/10/27 01:23:24;;;;;;;5.97;1.20;;;;;;;;;;2071153;28;20034;-77
2021/10/27 01:24:43;;;;;;;1.85;1.27;;;;;;;;;;2066158;28;20030;-77
2021/10/27 01:26:06;;;;;;;6.13;1.15;;;;;;;;;;2071945;28;20038;-78
2021/10/27 01:27:26;;;;;;;4.28;1.55;;;;;;;;;;2080010;28;20429;-78
2021/10/27 01:28:46;;;;;;;7.82;1.50;;;;;;;;;;2069773;28;20057;-76
2021/10/27 01:30:05;;;;;;;4.60;1.42;;;;;;;;;;2067217;28;20022;-75
2021/10/27 01:31:24;;;;;;;3.78;0.93;;;;;;;;;;2072284;28;21170;-75
2021/10/27 01:32:43;;;;;;;4.40;1.30;;;;;;;;;;2071851;28;20034;-77
2021/10/27 01:34:02;;;;;;;11.00;1.50;;;;;;;;;;2071197;28;20026;-78
2021/10/27 01:35:21;;;;;;;4.97;1.52;;;;;;;;;;2067260;28;20031;-77
2021/10/27 01:36:41;;;;;;;7.45;1.30;;;;;;;;;;2068995;28;20030;-78
2021/10/27 01:37:59;;;;;;;2.55;1.15;;;;;;;;;;2070852;28;20061;-77
2021/10/27 01:39:18;;;;;;;6.38;1.33;;;;;;;;;;2068935;28;20034;-76
2021/10/27 01:40:38;;;;;;;2.90;1.15;;;;;;;;;;2071948;28;20378;-76
2021/10/27 01:41:57;;;;;;;4.75;1.10;;;;;;;;;;2069094;28;20037;-76
2021/10/27 01:43:16;;;;;;;5.60;0.90;;;;;;;;;;2068313;28;20026;-77
2021/10/27 01:44:34;;;;;;;4.53;1.70;;;;;;;;;;2074433;28;20034;-76
2021/10/27 01:45:54;;;;;;;6.50;1.55;;;;;;;;;;2069986;28;20140;-76
2021/10/27 01:47:13;;;;;;;7.53;1.30;;;;;;;;;;2069814;28;20466;-76
2021/10/27 01:48:32;;;;;;;6.75;1.45;;;;;;;;;;2071365;28;20651;-77
2021/10/27 01:49:51;;;;;;;5.40;1.75;;;;;;;;;;2071295;28;20112;-75
2021/10/27 01:51:09;;;;;;;3.47;1.40;;;;;;;;;;2079736;28;20037;-77
2021/10/27 01:52:28;;;;;;;6.25;1.20;;;;;;;;;;2075354;28;20038;-77
2021/10/27 01:53:47;;;;;;;5.45;1.58;;;;;;;;;;2071643;28;20029;-75
2021/10/27 01:55:06;;;;;;;7.90;1.58;;;;;;;;;;2070747;28;20029;-77
2021/10/27 01:56:26;;;;;;;5.32;1.38;;;;;;;;;;2071289;28;20018;-77
2021/10/27 01:57:45;;;;;;;8.52;1.65;;;;;;;;;;2072345;28;20018;-77
2021/10/27 01:59:04;;;;;;;4.60;1.25;;;;;;;;;;2072409;28;20082;-77
2021/10/27 02:00:23;;;;;;;7.32;1.75;;;;;;;;;;2072184;28;20120;-77
2021/10/27 02:01:42;;;;;;;7.30;1.48;;;;;;;;;;2074335;28;20037;-77
2021/10/27 02:03:00;;;;;;;3.65;1.20;;;;;;;;;;2075641;28;20498;-76
2021/10/27 02:04:20;;;;;;;7.05;1.38;;;;;;;;;;2075773;28;20034;-77
2021/10/27 02:05:39;;;;;;;9.40;1.83;;;;;;;;;;2072517;28;20417;-75
2021/10/27 02:06:58;;;;;;;7.05;1.30;;;;;;;;;;2074692;28;20087;-76
2021/10/27 02:08:17;;;;;;;4.88;1.33;;;;;;;;;;2072696;28;20022;-77
2021/10/27 02:09:37;;;;;;;8.32;1.50;;;;;;;;;;2072564;28;20038;-76
2021/10/27 02:10:56;;;;;;;7.35;2.05;;;;;;;;;;2073244;28;20033;-76
2021/10/27 02:12:15;;;;;;;7.57;2.00;;;;;;;;;;2070887;28;20026;-76
2021/10/27 02:13:34;;;;;;;4.53;1.60;;;;;;;;;;2072383;28;20031;-75
2021/10/27 02:14:53;;;;;;;4.20;1.38;;;;;;;;;;2072690;28;20034;-76
2021/10/27 02:16:12;;;;;;;5.20;1.38;;;;;;;;;;2073729;28;20053;-77
2021/10/27 02:17:31;;;;;;;7.63;1.67;;;;;;;;;;2071990;28;20042;-76
2021/10/27 02:18:50;;;;;;;5.68;1.73;;;;;;;;;;2073231;28;20026;-75
2021/10/27 02:20:09;;;;;;;5.07;1.33;;;;;;;;;;2070637;28;20073;-76
2021/10/27 02:21:28;;;;;;;5.32;1.52;;;;;;;;;;2071296;28;20078;-76
2021/10/27 02:22:47;;;;;;;6.38;1.98;;;;;;;;;;2072310;28;20463;-75
2021/10/27 02:24:06;;;;;;;8.27;1.75;;;;;;;;;;2070287;28;20121;-73
2021/10/27 02:25:25;;;;;;;3.88;1.40;;;;;;;;;;2068661;28;20037;-77
2021/10/27 02:26:44;;;;;;;12.35;1.50;;;;;;;;;;2073358;28;20034;-76
2021/10/27 02:28:03;;;;;;;6.40;1.35;;;;;;;;;;2077727;28;20041;-76
2021/10/27 02:29:21;;;;;;;7.15;1.63;;;;;;;;;;2071883;28;20042;-77
2021/10/27 02:30:41;;;;;;;6.28;1.55;;;;;;;;;;2067805;28;20109;-76
2021/10/27 02:32:01;;;;;;;10.70;1.98;;;;;;;;;;2072204;28;20510;-77
2021/10/27 02:33:20;;;;;;;4.78;1.85;;;;;;;;;;2070956;28;20030;-76
2021/10/27 02:34:39;;;;;;;8.07;2.08;;;;;;;;;;2073846;28;20030;-77
2021/10/27 02:35:58;;;;;;;5.07;1.77;;;;;;;;;;2069778;28;20037;-74
2021/10/27 02:37:17;;;;;;;7.50;1.60;;;;;;;;;;2069732;28;20034;-77
2021/10/27 02:38:36;;;;;;;3.20;1.75;;;;;;;;;;2068638;28;20034;-75
2021/10/27 02:39:55;;;;;;;3.92;1.75;;;;;;;;;;2075546;28;20042;-76
2021/10/27 02:41:14;;;;;;;5.50;2.08;;;;;;;;;;2075743;28;20062;-75
2021/10/27 02:42:34;;;;;;;5.35;1.70;;;;;;;;;;2071984;28;20038;-77
2021/10/27 02:43:53;;;;;;;5.82;1.50;;;;;;;;;;2080392;28;20022;-77
2021/10/27 02:45:12;;;;;;;4.90;1.52;;;;;;;;;;2072259;28;20518;-77
2021/10/27 02:46:31;;;;;;;6.80;1.70;;;;;;;;;;2071579;28;20029;-76
2021/10/27 02:47:50;;;;;;;4.65;1.30;;;;;;;;;;2070077;28;20030;-75
2021/10/27 02:49:09;;;;;;;5.18;1.58;;;;;;;;;;2072100;28;20026;-76
2021/10/27 02:50:28;;;;;;;6.78;1.88;;;;;;;;;;2073071;28;20026;-77
2021/10/27 02:51:47;;;;;;;5.68;1.75;;;;;;;;;;2071020;28;20027;-77
2021/10/27 02:53:06;;;;;;;10.23;2.15;;;;;;;;;;2072051;28;20049;-75
2021/10/27 02:54:25;;;;;;;8.93;2.03;;;;;;;;;;2068580;28;20514;-76
2021/10/27 02:55:44;;;;;;;5.97;1.90;;;;;;;;;;2072425;28;20030;-77
2021/10/27 02:57:03;;;;;;;5.20;1.63;;;;;;;;;;2073003;28;20057;-77
2021/10/27 02:58:22;;;;;;;7.38;1.98;;;;;;;;;;2072860;28;20510;-77
2021/10/27 02:59:40;;;;;;;6.93;1.40;;;;;;;;;;2072522;28;20037;-77
2021/10/27 03:01:00;;;;;;;4.18;1.70;;;;;;;;;;2072333;28;20062;-76
2021/10/27 03:02:19;;;;;;;9.02;1.85;;;;;;;;;;2079015;28;20485;-76
2021/10/27 03:03:38;;;;;;;7.55;2.08;;;;;;;;;;2075855;28;20038;-77
2021/10/27 03:04:57;;;;;;;6.78;1.48;;;;;;;;;;2071361;28;20033;-77
2021/10/27 03:06:16;;;;;;;6.47;1.70;;;;;;;;;;2072183;28;20030;-76
2021/10/27 03:07:35;;;;;;;10.77;2.28;;;;;;;;;;2077153;28;20164;-77
2021/10/27 03:08:54;;;;;;;7.05;1.75;;;;;;;;;;2074165;28;20034;-76
2021/10/27 03:10:13;;;;;;;5.53;1.48;;;;;;;;;;2071954;28;20053;-76
2021/10/27 03:11:32;;;;;;;6.82;2.22;;;;;;;;;;2071019;28;20411;-77
2021/10/27 03:12:51;;;;;;;16.08;2.67;;;;;;;;;;2070507;28;20105;-76
2021/10/27 03:14:10;;;;;;;4.97;1.45;;;;;;;;;;2073785;28;20404;-77
2021/10/27 03:15:28;;;;;;;5.95;1.92;;;;;;;;;;2072246;28;20026;-77
2021/10/27 03:16:48;;;;;;;8.40;1.60;;;;;;;;;;2071838;28;20034;-76
2021/10/27 03:18:06;;;;;;;5.28;1.60;;;;;;;;;;2072601;28;20025;-77
2021/10/27 03:19:25;;;;;;;4.50;1.60;;;;;;;;;;2072504;28;20038;-77
2021/10/27 03:20:44;;;;;;;7.05;2.05;;;;;;;;;;2071338;28;20034;-77
2021/10/27 03:22:03;;;;;;;6.85;1.52;;;;;;;;;;2072663;28;20093;-76
2021/10/27 03:23:22;;;;;;;6.90;2.03;;;;;;;;;;2072759;28;20030;-76
2021/10/27 03:24:41;;;;;;;7.90;1.73;;;;;;;;;;2072212;28;20037;-74
2021/10/27 03:26:00;;;;;;;5.93;1.88;;;;;;;;;;2070532;28;20034;-76
2021/10/27 03:27:19;;;;;;;8.40;1.70;;;;;;;;;;2071600;28;20046;-76
2021/10/27 03:28:38;;;;;;;6.55;1.25;;;;;;;;;;2071223;28;20034;-76
2021/10/27 03:29:57;;;;;;;7.18;2.40;;;;;;;;;;2071867;28;20022;-75
2021/10/27 03:31:16;;;;;;;6.75;1.65;;;;;;;;;;2066561;28;20471;-76
2021/10/27 03:32:35;;;;;;;8.25;1.98;;;;;;;;;;2081782;28;20037;-76
2021/10/27 03:33:54;;;;;;;11.88;1.90;;;;;;;;;;2072677;28;20030;-77
2021/10/27 03:35:13;;;;;;;4.53;1.58;;;;;;;;;;2070573;28;20018;-79
2021/10/27 03:36:32;;;;;;;6.47;2.17;;;;;;;;;;2072082;28;20038;-77
2021/10/27 03:37:51;;;;;;;5.78;1.45;;;;;;;;;;2069305;28;20034;-76
2021/10/27 03:39:09;;;;;;;6.22;1.70;;;;;;;;;;2071126;28;20375;-77
2021/10/27 03:40:28;;;;;;;5.10;1.13;;;;;;;;;;2071411;28;20033;-77
2021/10/27 03:41:48;;;;;;;5.57;1.90;;;;;;;;;;2072961;28;20117;-77
2021/10/27 03:43:06;;;;;;;7.07;1.85;;;;;;;;;;2071149;28;20030;-75
2021/10/27 03:44:26;;;;;;;11.10;1.52;;;;;;;;;;2072033;28;20042;-76
2021/10/27 03:45:45;;;;;;;6.80;2.00;;;;;;;;;;2070612;28;20108;-76
2021/10/27 03:47:04;;;;;;;6.15;2.13;;;;;;;;;;2071503;28;20462;-78
2021/10/27 03:48:23;;;;;;;3.78;1.80;;;;;;;;;;2068598;28;20046;-77
2021/10/27 03:49:42;;;;;;;5.65;1.75;;;;;;;;;;2076442;28;20041;-78
2021/10/27 03:51:01;;;;;;;6.57;2.08;;;;;;;;;;2074184;28;20026;-77
2021/10/27 03:52:21;;;;;;;9.30;1.75;;;;;;;;;;2071845;28;20018;-76
2021/10/27 03:53:40;;;;;;;7.10;1.83;;;;;;;;;;2072289;28;20038;-77
2021/10/27 03:55:00;;;;;;;5.28;2.03;;;;;;;;;;2071527;28;20104;-77
2021/10/27 03:56:19;;;;;;;7.78;1.73;;;;;;;;;;2070417;28;20022;-77
2021/10/27 03:57:38;;;;;;;8.25;2.22;;;;;;;;;;2073891;28;20030;-76
2021/10/27 03:58:57;;;;;;;5.63;1.95;;;;;;;;;;2068071;28;20026;-75
2021/10/27 04:00:16;;;;;;;6.80;1.83;;;;;;;;;;2070338;28;20518;-77
2021/10/27 04:01:35;;;;;;;9.70;1.50;;;;;;;;;;2072023;28;20041;-76
2021/10/27 04:02:54;;;;;;;4.63;1.65;;;;;;;;;;2071302;28;20453;-78
2021/10/27 04:04:13;;;;;;;9.98;1.90;;;;;;;;;;2072628;28;20045;-78
2021/10/27 04:05:33;;;;;;;6.03;1.92;;;;;;;;;;2071797;28;20041;-76
2021/10/27 04:06:52;;;;;;;5.47;2.30;;;;;;;;;;2071352;28;20388;-74
2021/10/27 04:08:11;;;;;;;7.07;1.77;;;;;;;;;;2070730;28;20475;-77
2021/10/27 04:09:30;;;;;;;4.70;1.85;;;;;;;;;;2071880;28;20119;-78
2021/10/27 04:10:49;;;;;;;6.68;1.90;;;;;;;;;;2069178;28;20113;-77
2021/10/27 04:12:09;;;;;;;6.07;1.95;;;;;;;;;;2069495;28;20518;-77
2021/10/27 04:13:28;;;;;;;5.65;1.75;;;;;;;;;;2070964;28;20037;-77
2021/10/27 04:14:47;;;;;;;5.50;1.77;;;;;;;;;;2072099;28;20030;-78
2021/10/27 04:16:05;;;;;;;4.68;1.70;;;;;;;;;;2070871;28;20490;-76
2021/10/27 04:17:24;;;;;;;6.43;2.17;;;;;;;;;;2068917;28;20034;-78
2021/10/27 04:18:43;;;;;;;4.28;1.83;;;;;;;;;;2066629;28;20018;-77
2021/10/27 04:20:06;;;;;;;10.15;2.42;;;;;;;;;;2071380;28;20042;-77
2021/10/27 04:21:25;;;;;;;6.03;2.03;;;;;;;;;;2070181;28;20112;-76
2021/10/27 04:22:44;;;;;;;5.07;2.28;;;;;;;;;;2071815;28;20030;-76
2021/10/27 04:24:03;;;;;;;5.82;2.10;;;;;;;;;;2071402;28;20025;-77
2021/10/27 04:25:22;;;;;;;4.57;1.70;;;;;;;;;;2072122;28;20522;-77
2021/10/27 04:26:41;;;;;;;4.50;1.58;;;;;;;;;;2068401;28;20038;-74
2021/10/27 04:28:00;;;;;;;6.68;1.70;;;;;;;;;;2071312;28;20038;-76
2021/10/27 04:29:19;;;;;;;3.47;1.63;;;;;;;;;;2071156;28;20034;-78
2021/10/27 04:30:38;;;;;;;5.43;1.83;;;;;;;;;;2069923;28;20018;-76
2021/10/27 04:31:57;;;;;;;5.93;1.73;;;;;;;;;;2066720;28;20026;-77
2021/10/27 04:33:21;;;;;;;6.22;1.90;;;;;;;;;;2072620;28;20396;-76
2021/10/27 04:34:40;;;;;;;5.22;1.90;;;;;;;;;;2072550;28;20527;-79
2021/10/27 04:35:59;;;;;;;7.55;1.90;;;;;;;;;;2072101;28;20026;-79
2021/10/27 04:37:18;;;;;;;3.92;1.83;;;;;;;;;;2071122;28;20014;-76
2021/10/27 04:38:37;;;;;;;4.10;1.98;;;;;;;;;;2067316;28;20026;-77
2021/10/27 04:39:56;;;;;;;6.50;2.60;;;;;;;;;;2069798;28;20037;-79
2021/10/27 04:41:15;;;;;;;5.65;1.98;;;;;;;;;;2068753;28;20022;-76
2021/10/27 04:42:35;;;;;;;9.27;2.22;;;;;;;;;;2073140;28;20041;-77
2021/10/27 04:43:54;;;;;;;6.60;2.20;;;;;;;;;;2070248;28;20038;-78
2021/10/27 04:45:13;;;;;;;4.35;2.10;;;;;;;;;;2070861;28;20037;-78
2021/10/27 04:46:31;;;;;;;7.72;2.15;;;;;;;;;;2069126;28;20105;-77
2021/10/27 04:47:50;;;;;;;7.60;1.83;;;;;;;;;;2068907;28;20034;-79
2021/10/27 04:49:09;;;;;;;5.43;2.15;;;;;;;;;;2068210;28;20046;-77
2021/10/27 04:50:28;;;;;;;5.15;1.92;;;;;;;;;;2071502;28;20474;-78
2021/10/27 04:51:47;;;;;;;6.72;2.30;;;;;;;;;;2072774;28;20030;-78
2021/10/27 04:53:16;;;;;;;8.35;2.65;;;;;;;;;;2072548;28;20486;-78
2021/10/27 04:54:35;;;;;;;3.95;1.98;;;;;;;;;;2072098;28;20030;-80
2021/10/27 04:55:54;;;;;;;6.18;1.95;;;;;;;;;;2068893;28;20628;-80
2021/10/27 04:57:13;;;;;;;7.05;2.08;;;;;;;;;;2075838;28;20109;-78
2021/10/27 04:58:32;;;;;;;8.43;2.75;;;;;;;;;;2073877;28;20030;-77
2021/10/27 04:59:51;;;;;;;4.75;1.77;;;;;;;;;;2070844;28;20097;-76
2021/10/27 05:01:09;;;;;;;11.57;1.88;;;;;;;;;;2070081;28;20102;-77
2021/10/27 05:02:28;;;;;;;7.78;2.03;;;;;;;;;;2072341;28;20428;-76
2021/10/27 05:03:47;;;;;;;4.63;1.80;;;;;;;;;;2072218;28;20038;-76
2021/10/27 05:05:07;;;;;;;7.25;2.42;;;;;;;;;;2072593;28;20117;-78
2021/10/27 05:06:25;;;;;;;4.95;2.10;;;;;;;;;;2079578;28;20037;-76
2021/10/27 05:07:44;;;;;;;5.50;2.00;;;;;;;;;;2073219;28;20037;-75
2021/10/27 05:09:03;;;;;;;8.18;2.28;;;;;;;;;;2069373;28;20025;-76
2021/10/27 05:10:22;;;;;;;9.25;2.53;;;;;;;;;;2073347;28;20340;-77
2021/10/27 05:11:41;;;;;;;7.43;2.20;;;;;;;;;;2074152;28;20420;-77
2021/10/27 05:13:00;;;;;;;4.63;1.95;;;;;;;;;;2072246;28;20150;-77
2021/10/27 05:14:19;;;;;;;8.45;1.75;;;;;;;;;;2068152;28;20022;-75
2021/10/27 05:15:38;;;;;;;4.13;1.80;;;;;;;;;;2070988;28;20030;-77
2021/10/27 05:16:57;;;;;;;8.25;2.25;;;;;;;;;;2069649;28;20030;-77
2021/10/27 05:18:16;;;;;;;9.98;2.53;;;;;;;;;;2068059;28;20037;-75
2021/10/27 05:19:37;;;;;;;6.75;2.28;;;;;;;;;;2076933;28;20033;-76
2021/10/27 05:20:56;;;;;;;7.50;1.70;;;;;;;;;;2077705;28;20018;-79
2021/10/27 05:22:15;;;;;;;8.82;2.00;;;;;;;;;;2074714;28;20061;-78
2021/10/27 05:23:35;;;;;;;9.48;2.63;;;;;;;;;;2079045;28;20037;-76
2021/10/27 05:24:55;;;;;;;6.50;2.47;;;;;;;;;;2079856;28;20446;-76
2021/10/27 05:26:13;;;;;;;9.50;2.60;;;;;;;;;;2074428;28;20085;-76
2021/10/27 05:27:34;;;;;;;7.57;2.10;;;;;;;;;;2074280;28;20042;-76
2021/10/27 05:28:53;;;;;;;8.60;2.55;;;;;;;;;;2070010;28;20037;-76
2021/10/27 05:30:12;;;;;;;7.45;2.47;;;;;;;;;;2071933;28;20657;-75
2021/10/27 05:31:30;;;;;;;5.38;2.50;;;;;;;;;;2073652;28;20033;-75
2021/10/27 05:32:54;;;;;;;7.03;2.47;;;;;;;;;;2072469;28;20105;-77
2021/10/27 05:34:13;;;;;;;8.25;2.50;;;;;;;;;;2079736;28;20072;-75
2021/10/27 05:35:32;;;;;;;5.40;2.25;;;;;;;;;;2077639;28;20038;-77
2021/10/27 05:36:51;;;;;;;9.35;2.47;;;;;;;;;;2082303;28;20029;-77
2021/10/27 05:38:10;;;;;;;7.53;2.45;;;;;;;;;;2076455;28;20026;-76
2021/10/27 05:39:30;;;;;;;5.85;2.00;;;;;;;;;;2074993;28;20105;-77
2021/10/27 05:40:48;;;;;;;5.95;2.03;;;;;;;;;;2076733;28;20038;-78
2021/10/27 05:42:11;;;;;;;6.60;2.58;;;;;;;;;;2076947;28;20026;-77
2021/10/27 05:43:31;;;;;;;;;;;;;;;;;;2080081;28;20030;-76
2021/10/27 05:44:51;;;;;;;5.63;2.72;;;;;;;;;;2073845;28;19988;-77
2021/10/27 05:46:10;;;;;;;9.27;2.95;;;;;;;;;;2072604;28;20090;-77
2021/10/27 05:47:29;;;;;;;7.90;2.20;;;;;;;;;;2076488;28;20041;-76
2021/10/27 05:48:58;;;;;;;6.43;2.80;;;;;;;;;;2075148;28;20064;-76
2021/10/27 05:51:46;;;;;;;10.73;2.97;;;;;;;;;;2074349;28;20034;-76
2021/10/27 05:56:22;;;;;;;6.03;2.60;;;;;;;;;;2073218;28;20038;-77
2021/10/27 05:57:41;;;;;;;6.25;2.20;;;;;;;;;;2076399;28;20482;-79
2021/10/27 05:59:00;;;;;;;8.15;2.72;;;;;;;;;;2075993;28;20029;-79
2021/10/27 06:00:19;;;;;;;7.93;2.83;;;;;;;;;;2069990;28;20109;-78
2021/10/27 06:01:38;;;;;;;5.53;2.63;;;;;;;;;;2072216;28;20054;-78
2021/10/27 06:02:57;;;;;;;6.63;2.33;;;;;;;;;;2074676;28;20774;-79
2021/10/27 06:04:17;;;;;;;5.32;2.63;;;;;;;;;;2073952;28;20037;-79
2021/10/27 06:05:36;;;;;;;3.30;2.45;;;;;;;;;;2074882;28;20102;-78
2021/10/27 06:06:55;;;;;;;7.35;2.60;;;;;;;;;;2072446;28;20117;-79
2021/10/27 06:08:15;;;;;;;6.40;3.05;;;;;;;;;;2074275;28;20030;-77
2021/10/27 06:09:37;;;;;;;7.93;3.05;;;;;;;;;;2071949;28;20085;-78
2021/10/27 06:10:58;;;;;;;13.25;2.65;;;;;;;;;;2072105;28;20018;-79
2021/10/27 06:12:18;;;;;;;9.15;3.22;;;;;;;;;;2075386;28;20110;-80
2021/10/27 06:13:44;;;;;;;3.95;2.80;;;;;;;;;;2074483;28;20026;-77
2021/10/27 06:15:03;;;;;;;5.10;2.67;;;;;;;;;;2081650;28;20029;-79
2021/10/27 06:16:22;;;;;;;7.80;2.65;;;;;;;;;;2078406;28;20101;-82
2021/10/27 06:17:41;;;;;;;5.63;2.70;;;;;;;;;;2073743;28;20026;-75
2021/10/27 06:19:00;;;;;;;7.78;2.67;;;;;;;;;;2074452;28;20033;-76
2021/10/27 06:20:19;;;;;;;5.97;2.40;;;;;;;;;;2075465;28;20109;-79
2021/10/27 06:21:39;;;;;;;6.72;2.83;;;;;;;;;;2075130;28;20505;-74
2021/10/27 06:22:58;;;;;;;7.15;2.53;;;;;;;;;;2073996;28;20030;-76
2021/10/27 06:24:17;;;;;;;6.18;2.83;;;;;;;;;;2072833;28;20034;-75
2021/10/27 06:25:36;;;;;;;8.18;3.45;;;;;;;;;;2072475;28;20033;-75
2021/10/27 06:26:55;;;;;;;8.27;3.25;;;;;;;;;;2073785;28;20073;-76
2021/10/27 06:28:19;;;;;;;12.00;4.10;;;;;;;;;;2074710;28;20030;-75
2021/10/27 06:30:03;;;;;;;7.20;3.25;;;;;;;;;;2072390;28;20042;-75
2021/10/27 06:31:26;;;;;;;5.85;3.00;;;;;;;;;;2073738;28;20022;-75
2021/10/27 06:33:09;;;;;;;5.70;3.08;;;;;;;;;;2074551;28;20026;-75
2021/10/27 06:34:38;;;;;;;6.97;2.88;;;;;;;;;;2073088;28;20049;-76
2021/10/27 06:36:16;;;;;;;8.52;3.17;;;;;;;;;;2073686;28;20136;-75
2021/10/27 06:37:59;;;;;;;7.47;2.85;;;;;;;;;;2073285;28;20038;-75
2021/10/27 06:47:28;;;;;;;8.13;2.90;;;;;;;;;;2072235;28;20029;-74
2021/10/27 06:48:47;;;;;;;12.63;3.72;;;;;;;;;;2070358;28;20120;-75
2021/10/27 06:50:06;;;;;;;9.85;3.03;;;;;;;;;;2070818;28;20481;-76
2021/10/27 06:51:25;;;;;;;9.73;3.05;;;;;;;;;;2070710;28;20025;-75
2021/10/27 06:52:44;;;;;;;5.95;2.72;;;;;;;;;;2071043;28;20398;-75
2021/10/27 06:54:03;;;;;;;9.38;2.67;;;;;;;;;;2073590;28;20018;-75
2021/10/27 06:55:22;;;;;;;4.07;3.20;;;;;;;;;;2072102;28;20510;-75
2021/10/27 06:56:41;;;;;;;8.60;3.00;;;;;;;;;;2078674;28;20034;-74
2021/10/27 06:58:01;;;;;;;6.93;3.33;;;;;;;;;;2073512;28;20022;-74
2021/10/27 06:59:29;;;;;;;6.90;3.08;;;;;;;;;;2071445;28;20030;-75
2021/10/27 07:00:51;;;;;;;11.93;2.97;;;;;;;;;;2071112;28;20550;-75
2021/10/27 07:04:04;;;;;;;9.35;4.18;;;;;;;;;;2071556;28;20029;-75
2021/10/27 07:15:07;;;;;;;8.75;3.40;;;;;;;;;;2070656;28;20041;-74
2021/10/27 07:16:26;;;;;;;8.10;3.58;;;;;;;;;;2072049;28;20026;-74
2021/10/27 07:17:49;;;;;;;8.43;3.50;;;;;;;;;;2066729;28;20033;-75
2021/10/27 07:19:07;;;;;;;;;;;;;;;;;;2071131;28;20030;-74
2021/10/27 07:20:28;;;;;;;6.35;3.08;;;;;;;;;;2071093;28;19909;-74
2021/10/27 07:21:47;;;;;;;4.72;3.25;;;;;;;;;;2073740;28;20022;-73
2021/10/27 07:23:09;;;;;;;10.48;4.10;;;;;;;;;;2073185;28;20104;-74
2021/10/27 07:24:29;;;;;;;7.45;3.55;;;;;;;;;;2072730;28;20117;-73
2021/10/27 07:25:56;;;;;;;7.95;3.25;;;;;;;;;;2071962;28;20041;-73
2021/10/27 07:27:15;;;;;;;5.63;3.08;;;;;;;;;;2080068;28;20033;-73
2021/10/27 07:28:34;;;;;;;8.40;3.83;;;;;;;;;;2075653;28;20042;-75
2021/10/27 07:29:53;;;;;;;8.65;3.55;;;;;;;;;;2072924;28;20026;-75
2021/10/27 07:31:15;;;;;;;5.50;3.15;;;;;;;;;;2072645;28;20121;-75
2021/10/27 07:32:35;;;;;;;7.53;3.50;;;;;;;;;;2068717;28;20030;-75
2021/10/27 07:34:05;;;;;;;7.55;3.55;;;;;;;;;;2070085;28;20022;-75
2021/10/27 07:35:39;;;;;;;4.80;3.45;;;;;;;;;;2071408;28;20061;-75
2021/10/27 07:41:45;;;;;;;7.35;3.67;;;;;;;;;;2070125;28;20474;-75
2021/10/27 07:43:10;;;;;;;3.58;2.80;;;;;;;;;;2073098;28;20038;-74
2021/10/27 07:44:29;;;;;;;4.43;3.13;;;;;;;;;;2069388;28;20030;-75
2021/10/27 07:45:48;;;;;;;9.32;3.75;;;;;;;;;;2071792;28;20498;-73
2021/10/27 07:47:07;;;;;;;4.88;3.22;;;;;;;;;;2071657;28;20034;-74
2021/10/27 07:48:26;;;;;;;6.88;3.83;;;;;;;;;;2072453;28;20030;-74
2021/10/27 07:49:47;;;;;;;8.02;3.22;;;;;;;;;;2071859;28;20573;-74
2021/10/27 07:51:06;;;;;;;7.80;3.42;;;;;;;;;;2072051;28;20031;-74
2021/10/27 07:52:24;;;;;;;7.63;3.03;;;;;;;;;;2070195;28;20033;-74
2021/10/27 07:53:43;;;;;;;6.82;3.38;;;;;;;;;;2073798;28;20026;-75
2021/10/27 07:55:03;;;;;;;6.03;3.10;;;;;;;;;;2072406;28;20030;-73
2021/10/27 07:56:22;;;;;;;4.88;3.13;;;;;;;;;;2065465;28;20034;-75
2021/10/27 07:57:42;;;;;;;4.95;2.90;;;;;;;;;;2072590;28;20109;-74
2021/10/27 07:59:02;;;;;;;7.40;3.63;;;;;;;;;;2079173;28;20390;-75
2021/10/27 08:00:21;;;;;;;7.78;3.10;;;;;;;;;;2073948;28;20015;-74
2021/10/27 08:01:40;;;;;;;8.73;3.65;;;;;;;;;;2072606;28;20486;-75
2021/10/27 08:03:03;;;;;;;5.80;3.55;;;;;;;;;;2072961;28;20026;-74
2021/10/27 08:04:22;;;;;;;6.78;3.72;;;;;;;;;;2071852;28;20038;-75
2021/10/27 08:05:43;;;;;;;8.15;3.67;;;;;;;;;;2069427;28;20030;-74
2021/10/27 08:07:02;;;;;;;7.82;3.85;;;;;;;;;;2069523;28;20387;-77
2021/10/27 08:08:22;;;;;;;6.47;3.72;;;;;;;;;;2071233;28;20105;-75
2021/10/27 08:09:41;;;;;;;6.28;3.40;;;;;;;;;;2071727;28;20022;-75
2021/10/27 08:11:00;;;;;;;5.13;3.50;;;;;;;;;;2077378;28;20152;-74
2021/10/27 08:12:20;;;;;;;6.13;3.08;;;;;;;;;;2079584;28;20029;-75
2021/10/27 08:13:39;;;;;;;6.72;3.13;;;;;;;;;;2073815;28;20421;-75
2021/10/27 08:14:57;;;;;;;5.97;3.35;;;;;;;;;;2070673;28;20125;-74
2021/10/27 08:16:18;;;;;;;6.22;3.50;;;;;;;;;;2073050;28;20030;-75
2021/10/27 08:17:38;;;;;;;7.72;3.47;;;;;;;;;;2073002;28;20038;-76
2021/10/27 08:18:58;;;;;;;7.80;3.33;;;;;;;;;;2070130;28;20037;-75
2021/10/27 08:20:18;;;;;;;5.05;3.42;;;;;;;;;;2070752;28;20042;-75
2021/10/27 08:21:37;;;;;;;6.20;3.10;;;;;;;;;;2071191;28;20026;-75
2021/10/27 08:23:01;;;;;;;4.68;3.53;;;;;;;;;;2071435;28;20022;-75
2021/10/27 08:24:23;;;;;;;9.55;3.10;;;;;;;;;;2068535;28;20030;-75
2021/10/27 08:25:44;;;;;;;4.72;3.45;;;;;;;;;;2068697;28;21198;-74
2021/10/27 08:27:06;;;;;;;8.77;3.47;;;;;;;;;;2070487;28;20026;-74